sensor_id;sensor_type;location;lat;lon;timestamp;P1;durP1;ratioP1;P2;durP2;ratioP2
65581;SDS011;52231;40.090;18.348;2023-12-07T00:01:15;61.63;;;38.50;;
65581;SDS011;52231;40.090;18.348;2023-12-07T00:03:44;55.95;;;34.53;;
65581;SDS011;52231;40.090;18.348;2023-12-07T00:06:12;63.83;;;37.40;;
65581;SDS011;52231;40.090;18.348;2023-12-07T00:08:40;61.80;;;37.65;;
65581;SDS011;52231;40.090;18.348;2023-12-07T00:11:07;67.68;;;41.70;;
65581;SDS011;52231;40.090;18.348;2023-12-07T00:13:36;66.10;;;40.28;;
65581;SDS011;52231;40.090;18.348;2023-12-07T00:16:04;73.18;;;42.88;;
65581;SDS011;52231;40.090;18.348;2023-12-07T00:18:32;72.45;;;44.00;;
65581;SDS011;52231;40.090;18.348;2023-12-07T00:21:01;73.10;;;42.30;;
65581;SDS011;52231;40.090;18.348;2023-12-07T00:23:29;77.82;;;45.88;;
65581;SDS011;52231;40.090;18.348;2023-12-07T00:25:57;70.55;;;43.63;;
65581;SDS011;52231;40.090;18.348;2023-12-07T00:28:25;68.55;;;43.53;;
65581;SDS011;52231;40.090;18.348;2023-12-07T00:30:53;64.47;;;39.63;;
65581;SDS011;52231;40.090;18.348;2023-12-07T00:33:22;63.08;;;39.00;;
65581;SDS011;52231;40.090;18.348;2023-12-07T00:35:50;57.00;;;33.63;;
65581;SDS011;52231;40.090;18.348;2023-12-07T00:38:18;52.03;;;29.42;;
65581;SDS011;52231;40.090;18.348;2023-12-07T00:40:48;47.85;;;29.33;;
65581;SDS011;52231;40.090;18.348;2023-12-07T00:43:16;41.22;;;23.23;;
65581;SDS011;52231;40.090;18.348;2023-12-07T00:45:44;39.60;;;22.55;;
65581;SDS011;52231;40.090;18.348;2023-12-07T00:48:12;39.08;;;20.15;;
65581;SDS011;52231;40.090;18.348;2023-12-07T00:50:40;31.30;;;17.00;;
65581;SDS011;52231;40.090;18.348;2023-12-07T00:53:09;27.65;;;15.98;;
65581;SDS011;52231;40.090;18.348;2023-12-07T00:55:37;26.95;;;14.55;;
65581;SDS011;52231;40.090;18.348;2023-12-07T00:58:05;26.30;;;15.93;;
65581;SDS011;52231;40.090;18.348;2023-12-07T01:00:33;25.40;;;15.30;;
65581;SDS011;52231;40.090;18.348;2023-12-07T01:03:02;26.45;;;15.20;;
65581;SDS011;52231;40.090;18.348;2023-12-07T01:05:30;33.97;;;16.10;;
65581;SDS011;52231;40.090;18.348;2023-12-07T01:07:58;28.52;;;16.98;;
65581;SDS011;52231;40.090;18.348;2023-12-07T01:10:26;32.55;;;17.90;;
65581;SDS011;52231;40.090;18.348;2023-12-07T01:12:54;31.10;;;18.52;;
65581;SDS011;52231;40.090;18.348;2023-12-07T01:15:23;30.92;;;18.98;;
65581;SDS011;52231;40.090;18.348;2023-12-07T01:17:51;30.40;;;16.98;;
65581;SDS011;52231;40.090;18.348;2023-12-07T01:20:20;33.92;;;16.50;;
65581;SDS011;52231;40.090;18.348;2023-12-07T01:22:48;33.58;;;19.42;;
65581;SDS011;52231;40.090;18.348;2023-12-07T01:25:16;31.90;;;18.40;;
65581;SDS011;52231;40.090;18.348;2023-12-07T01:27:49;32.70;;;18.73;;
65581;SDS011;52231;40.090;18.348;2023-12-07T01:30:17;33.78;;;19.58;;
65581;SDS011;52231;40.090;18.348;2023-12-07T01:32:45;33.17;;;17.60;;
65581;SDS011;52231;40.090;18.348;2023-12-07T01:35:13;31.10;;;18.98;;
65581;SDS011;52231;40.090;18.348;2023-12-07T01:37:42;31.23;;;18.77;;
65581;SDS011;52231;40.090;18.348;2023-12-07T01:40:10;31.80;;;18.23;;
65581;SDS011;52231;40.090;18.348;2023-12-07T01:42:38;30.60;;;18.77;;
65581;SDS011;52231;40.090;18.348;2023-12-07T01:45:06;33.97;;;18.67;;
65581;SDS011;52231;40.090;18.348;2023-12-07T01:47:35;37.17;;;18.55;;
65581;SDS011;52231;40.090;18.348;2023-12-07T01:50:04;31.35;;;17.73;;
65581;SDS011;52231;40.090;18.348;2023-12-07T01:52:33;30.27;;;17.42;;
65581;SDS011;52231;40.090;18.348;2023-12-07T01:55:06;27.85;;;15.85;;
65581;SDS011;52231;40.090;18.348;2023-12-07T01:57:36;35.70;;;17.45;;
65581;SDS011;52231;40.090;18.348;2023-12-07T02:00:05;29.40;;;15.57;;
65581;SDS011;52231;40.090;18.348;2023-12-07T02:02:34;27.70;;;16.85;;
65581;SDS011;52231;40.090;18.348;2023-12-07T02:07:31;25.52;;;13.23;;
65581;SDS011;52231;40.090;18.348;2023-12-07T02:10:20;27.52;;;15.10;;
65581;SDS011;52231;40.090;18.348;2023-12-07T02:12:49;27.55;;;13.98;;
65581;SDS011;52231;40.090;18.348;2023-12-07T02:15:17;25.95;;;13.95;;
65581;SDS011;52231;40.090;18.348;2023-12-07T02:20:51;27.25;;;14.65;;
65581;SDS011;52231;40.090;18.348;2023-12-07T02:23:24;31.88;;;15.52;;
65581;SDS011;52231;40.090;18.348;2023-12-07T02:25:59;29.52;;;15.60;;
65581;SDS011;52231;40.090;18.348;2023-12-07T02:28:31;28.45;;;15.00;;
65581;SDS011;52231;40.090;18.348;2023-12-07T02:30:59;29.73;;;15.30;;
65581;SDS011;52231;40.090;18.348;2023-12-07T02:33:28;30.30;;;15.13;;
65581;SDS011;52231;40.090;18.348;2023-12-07T02:35:56;31.10;;;15.23;;
65581;SDS011;52231;40.090;18.348;2023-12-07T02:38:26;29.17;;;16.75;;
65581;SDS011;52231;40.090;18.348;2023-12-07T02:40:57;32.85;;;15.27;;
65581;SDS011;52231;40.090;18.348;2023-12-07T02:43:28;31.60;;;14.88;;
65581;SDS011;52231;40.090;18.348;2023-12-07T02:45:57;28.65;;;15.30;;
65581;SDS011;52231;40.090;18.348;2023-12-07T02:50:53;29.13;;;14.85;;
65581;SDS011;52231;40.090;18.348;2023-12-07T02:53:21;31.60;;;14.25;;
65581;SDS011;52231;40.090;18.348;2023-12-07T02:55:50;32.25;;;15.15;;
65581;SDS011;52231;40.090;18.348;2023-12-07T02:58:18;27.67;;;14.80;;
65581;SDS011;52231;40.090;18.348;2023-12-07T03:00:46;30.25;;;14.38;;
65581;SDS011;52231;40.090;18.348;2023-12-07T03:03:14;31.42;;;14.85;;
65581;SDS011;52231;40.090;18.348;2023-12-07T03:05:42;28.60;;;15.10;;
65581;SDS011;52231;40.090;18.348;2023-12-07T03:08:10;29.83;;;14.32;;
65581;SDS011;52231;40.090;18.348;2023-12-07T03:10:39;27.40;;;14.95;;
65581;SDS011;52231;40.090;18.348;2023-12-07T03:13:07;30.27;;;14.20;;
65581;SDS011;52231;40.090;18.348;2023-12-07T03:15:35;30.70;;;14.15;;
65581;SDS011;52231;40.090;18.348;2023-12-07T03:18:03;29.40;;;14.23;;
65581;SDS011;52231;40.090;18.348;2023-12-07T03:20:31;29.52;;;13.40;;
65581;SDS011;52231;40.090;18.348;2023-12-07T03:22:59;28.35;;;13.45;;
65581;SDS011;52231;40.090;18.348;2023-12-07T03:25:27;29.15;;;14.38;;
65581;SDS011;52231;40.090;18.348;2023-12-07T03:27:55;32.10;;;15.13;;
65581;SDS011;52231;40.090;18.348;2023-12-07T03:30:24;30.30;;;14.73;;
65581;SDS011;52231;40.090;18.348;2023-12-07T03:32:52;28.95;;;14.20;;
65581;SDS011;52231;40.090;18.348;2023-12-07T03:35:20;32.42;;;15.80;;
65581;SDS011;52231;40.090;18.348;2023-12-07T03:37:48;27.33;;;14.00;;
65581;SDS011;52231;40.090;18.348;2023-12-07T03:40:16;29.20;;;15.88;;
65581;SDS011;52231;40.090;18.348;2023-12-07T03:42:44;28.38;;;14.57;;
65581;SDS011;52231;40.090;18.348;2023-12-07T03:45:12;32.17;;;15.23;;
65581;SDS011;52231;40.090;18.348;2023-12-07T03:47:41;26.52;;;13.68;;
65581;SDS011;52231;40.090;18.348;2023-12-07T03:50:09;30.20;;;14.95;;
65581;SDS011;52231;40.090;18.348;2023-12-07T03:52:37;32.90;;;14.55;;
65581;SDS011;52231;40.090;18.348;2023-12-07T03:55:05;29.17;;;14.32;;
65581;SDS011;52231;40.090;18.348;2023-12-07T03:57:34;35.08;;;14.10;;
65581;SDS011;52231;40.090;18.348;2023-12-07T04:00:02;29.85;;;13.60;;
65581;SDS011;52231;40.090;18.348;2023-12-07T04:02:32;29.27;;;15.07;;
65581;SDS011;52231;40.090;18.348;2023-12-07T04:05:01;34.80;;;16.27;;
65581;SDS011;52231;40.090;18.348;2023-12-07T04:07:30;30.70;;;12.93;;
65581;SDS011;52231;40.090;18.348;2023-12-07T04:09:58;26.35;;;13.25;;
65581;SDS011;52231;40.090;18.348;2023-12-07T04:12:26;30.45;;;14.63;;
65581;SDS011;52231;40.090;18.348;2023-12-07T04:14:54;27.13;;;13.15;;
65581;SDS011;52231;40.090;18.348;2023-12-07T04:17:22;28.45;;;13.52;;
65581;SDS011;52231;40.090;18.348;2023-12-07T04:19:51;29.67;;;13.57;;
65581;SDS011;52231;40.090;18.348;2023-12-07T04:24:47;27.92;;;12.80;;
65581;SDS011;52231;40.090;18.348;2023-12-07T04:27:15;30.35;;;14.20;;
65581;SDS011;52231;40.090;18.348;2023-12-07T04:29:43;26.42;;;12.40;;
65581;SDS011;52231;40.090;18.348;2023-12-07T04:32:11;25.63;;;13.45;;
65581;SDS011;52231;40.090;18.348;2023-12-07T04:34:39;32.05;;;13.52;;
65581;SDS011;52231;40.090;18.348;2023-12-07T04:37:07;24.10;;;12.38;;
65581;SDS011;52231;40.090;18.348;2023-12-07T04:39:36;29.35;;;13.38;;
65581;SDS011;52231;40.090;18.348;2023-12-07T04:44:32;29.20;;;13.55;;
65581;SDS011;52231;40.090;18.348;2023-12-07T04:47:00;28.50;;;13.73;;
65581;SDS011;52231;40.090;18.348;2023-12-07T04:49:28;29.73;;;14.48;;
65581;SDS011;52231;40.090;18.348;2023-12-07T04:51:56;32.85;;;15.98;;
65581;SDS011;52231;40.090;18.348;2023-12-07T04:54:24;28.65;;;15.48;;
65581;SDS011;52231;40.090;18.348;2023-12-07T04:56:55;31.33;;;15.48;;
65581;SDS011;52231;40.090;18.348;2023-12-07T04:59:23;30.50;;;14.30;;
65581;SDS011;52231;40.090;18.348;2023-12-07T05:01:51;29.75;;;14.80;;
65581;SDS011;52231;40.090;18.348;2023-12-07T05:04:19;28.70;;;13.15;;
65581;SDS011;52231;40.090;18.348;2023-12-07T05:06:47;29.75;;;15.20;;
65581;SDS011;52231;40.090;18.348;2023-12-07T05:09:15;32.75;;;14.57;;
65581;SDS011;52231;40.090;18.348;2023-12-07T05:11:44;30.65;;;14.57;;
65581;SDS011;52231;40.090;18.348;2023-12-07T05:14:13;30.08;;;13.90;;
65581;SDS011;52231;40.090;18.348;2023-12-07T05:16:41;30.27;;;12.55;;
65581;SDS011;52231;40.090;18.348;2023-12-07T05:19:09;27.75;;;13.23;;
65581;SDS011;52231;40.090;18.348;2023-12-07T05:21:37;25.02;;;12.20;;
65581;SDS011;52231;40.090;18.348;2023-12-07T05:24:05;30.45;;;15.02;;
65581;SDS011;52231;40.090;18.348;2023-12-07T05:26:33;29.05;;;14.40;;
65581;SDS011;52231;40.090;18.348;2023-12-07T05:29:02;27.77;;;13.95;;
65581;SDS011;52231;40.090;18.348;2023-12-07T05:31:30;27.10;;;13.75;;
65581;SDS011;52231;40.090;18.348;2023-12-07T05:33:58;24.02;;;12.25;;
65581;SDS011;52231;40.090;18.348;2023-12-07T05:36:26;24.65;;;11.15;;
65581;SDS011;52231;40.090;18.348;2023-12-07T05:38:55;24.65;;;11.55;;
65581;SDS011;52231;40.090;18.348;2023-12-07T05:41:23;23.65;;;11.75;;
65581;SDS011;52231;40.090;18.348;2023-12-07T05:43:52;24.02;;;12.02;;
65581;SDS011;52231;40.090;18.348;2023-12-07T05:46:20;24.60;;;12.20;;
65581;SDS011;52231;40.090;18.348;2023-12-07T05:48:49;25.65;;;11.15;;
65581;SDS011;52231;40.090;18.348;2023-12-07T05:51:18;19.65;;;10.35;;
65581;SDS011;52231;40.090;18.348;2023-12-07T05:53:47;24.60;;;11.13;;
65581;SDS011;52231;40.090;18.348;2023-12-07T05:56:19;24.00;;;12.13;;
65581;SDS011;52231;40.090;18.348;2023-12-07T05:58:47;25.23;;;11.18;;
65581;SDS011;52231;40.090;18.348;2023-12-07T06:01:16;22.05;;;10.98;;
65581;SDS011;52231;40.090;18.348;2023-12-07T06:03:46;23.70;;;10.77;;
65581;SDS011;52231;40.090;18.348;2023-12-07T06:06:14;21.63;;;10.60;;
65581;SDS011;52231;40.090;18.348;2023-12-07T06:08:42;25.70;;;11.30;;
65581;SDS011;52231;40.090;18.348;2023-12-07T06:11:11;25.25;;;11.82;;
65581;SDS011;52231;40.090;18.348;2023-12-07T06:13:40;27.88;;;12.38;;
65581;SDS011;52231;40.090;18.348;2023-12-07T06:16:11;25.33;;;12.25;;
65581;SDS011;52231;40.090;18.348;2023-12-07T06:18:41;26.33;;;12.85;;
65581;SDS011;52231;40.090;18.348;2023-12-07T06:21:09;25.88;;;13.00;;
65581;SDS011;52231;40.090;18.348;2023-12-07T06:23:37;26.17;;;13.65;;
65581;SDS011;52231;40.090;18.348;2023-12-07T06:26:05;28.65;;;13.57;;
65581;SDS011;52231;40.090;18.348;2023-12-07T06:28:33;27.15;;;12.40;;
65581;SDS011;52231;40.090;18.348;2023-12-07T06:31:05;26.25;;;12.68;;
65581;SDS011;52231;40.090;18.348;2023-12-07T06:33:34;21.27;;;10.35;;
65581;SDS011;52231;40.090;18.348;2023-12-07T06:36:02;30.27;;;10.52;;
65581;SDS011;52231;40.090;18.348;2023-12-07T06:38:31;27.98;;;17.08;;
65581;SDS011;52231;40.090;18.348;2023-12-07T06:40:59;32.15;;;15.30;;
65581;SDS011;52231;40.090;18.348;2023-12-07T06:43:27;28.83;;;14.15;;
65581;SDS011;52231;40.090;18.348;2023-12-07T06:45:55;29.20;;;15.45;;
65581;SDS011;52231;40.090;18.348;2023-12-07T06:48:23;26.52;;;12.48;;
65581;SDS011;52231;40.090;18.348;2023-12-07T06:50:52;35.05;;;17.17;;
65581;SDS011;52231;40.090;18.348;2023-12-07T06:53:22;47.20;;;25.42;;
65581;SDS011;52231;40.090;18.348;2023-12-07T06:55:51;28.88;;;14.40;;
65581;SDS011;52231;40.090;18.348;2023-12-07T06:58:19;24.60;;;10.90;;
65581;SDS011;52231;40.090;18.348;2023-12-07T07:00:48;22.02;;;9.75;;
65581;SDS011;52231;40.090;18.348;2023-12-07T07:03:16;23.35;;;10.07;;
65581;SDS011;52231;40.090;18.348;2023-12-07T07:05:46;25.88;;;11.05;;
65581;SDS011;52231;40.090;18.348;2023-12-07T07:08:14;29.75;;;11.70;;
65581;SDS011;52231;40.090;18.348;2023-12-07T07:10:43;33.80;;;14.45;;
65581;SDS011;52231;40.090;18.348;2023-12-07T07:13:12;33.33;;;14.35;;
65581;SDS011;52231;40.090;18.348;2023-12-07T07:15:42;37.67;;;13.55;;
65581;SDS011;52231;40.090;18.348;2023-12-07T07:18:11;28.60;;;13.90;;
65581;SDS011;52231;40.090;18.348;2023-12-07T07:20:39;29.98;;;14.38;;
65581;SDS011;52231;40.090;18.348;2023-12-07T07:23:07;31.65;;;14.75;;
65581;SDS011;52231;40.090;18.348;2023-12-07T07:25:35;57.72;;;29.33;;
65581;SDS011;52231;40.090;18.348;2023-12-07T07:28:04;49.88;;;23.38;;
65581;SDS011;52231;40.090;18.348;2023-12-07T07:30:33;33.13;;;15.57;;
65581;SDS011;52231;40.090;18.348;2023-12-07T07:33:03;34.08;;;17.08;;
65581;SDS011;52231;40.090;18.348;2023-12-07T07:35:31;26.05;;;13.20;;
65581;SDS011;52231;40.090;18.348;2023-12-07T07:37:59;29.00;;;14.07;;
65581;SDS011;52231;40.090;18.348;2023-12-07T07:40:28;28.58;;;13.18;;
65581;SDS011;52231;40.090;18.348;2023-12-07T07:42:56;21.83;;;11.98;;
65581;SDS011;52231;40.090;18.348;2023-12-07T07:45:24;21.08;;;11.15;;
65581;SDS011;52231;40.090;18.348;2023-12-07T07:47:52;17.42;;;8.52;;
65581;SDS011;52231;40.090;18.348;2023-12-07T07:52:49;15.10;;;8.50;;
65581;SDS011;52231;40.090;18.348;2023-12-07T07:55:17;19.55;;;9.02;;
65581;SDS011;52231;40.090;18.348;2023-12-07T07:57:45;30.50;;;12.80;;
65581;SDS011;52231;40.090;18.348;2023-12-07T08:00:13;21.92;;;9.65;;
65581;SDS011;52231;40.090;18.348;2023-12-07T08:05:10;18.80;;;7.97;;
65581;SDS011;52231;40.090;18.348;2023-12-07T08:07:41;16.90;;;6.38;;
65581;SDS011;52231;40.090;18.348;2023-12-07T08:10:09;13.95;;;5.65;;
65581;SDS011;52231;40.090;18.348;2023-12-07T08:12:39;22.55;;;9.18;;
65581;SDS011;52231;40.090;18.348;2023-12-07T08:15:09;18.27;;;9.30;;
65581;SDS011;52231;40.090;18.348;2023-12-07T08:17:39;24.33;;;11.15;;
65581;SDS011;52231;40.090;18.348;2023-12-07T08:20:08;17.58;;;7.78;;
65581;SDS011;52231;40.090;18.348;2023-12-07T08:22:38;25.05;;;11.68;;
65581;SDS011;52231;40.090;18.348;2023-12-07T08:25:06;17.95;;;9.65;;
65581;SDS011;52231;40.090;18.348;2023-12-07T08:27:37;22.20;;;10.60;;
65581;SDS011;52231;40.090;18.348;2023-12-07T08:30:06;15.25;;;5.60;;
65581;SDS011;52231;40.090;18.348;2023-12-07T08:32:37;13.45;;;5.85;;
65581;SDS011;52231;40.090;18.348;2023-12-07T08:35:06;22.00;;;9.52;;
65581;SDS011;52231;40.090;18.348;2023-12-07T08:37:36;19.75;;;8.68;;
65581;SDS011;52231;40.090;18.348;2023-12-07T08:40:06;14.25;;;6.72;;
65581;SDS011;52231;40.090;18.348;2023-12-07T08:42:35;11.75;;;5.70;;
65581;SDS011;52231;40.090;18.348;2023-12-07T08:45:03;19.20;;;9.77;;
65581;SDS011;52231;40.090;18.348;2023-12-07T08:47:33;14.55;;;6.55;;
65581;SDS011;52231;40.090;18.348;2023-12-07T08:50:01;9.50;;;4.00;;
65581;SDS011;52231;40.090;18.348;2023-12-07T08:52:29;10.93;;;4.18;;
65581;SDS011;52231;40.090;18.348;2023-12-07T08:54:58;15.80;;;6.00;;
65581;SDS011;52231;40.090;18.348;2023-12-07T08:57:26;15.25;;;7.03;;
65581;SDS011;52231;40.090;18.348;2023-12-07T08:59:54;13.82;;;5.28;;
65581;SDS011;52231;40.090;18.348;2023-12-07T09:02:22;28.08;;;8.77;;
65581;SDS011;52231;40.090;18.348;2023-12-07T09:04:55;21.17;;;8.05;;
65581;SDS011;52231;40.090;18.348;2023-12-07T09:07:24;18.10;;;7.97;;
65581;SDS011;52231;40.090;18.348;2023-12-07T09:09:52;13.05;;;5.95;;
65581;SDS011;52231;40.090;18.348;2023-12-07T09:12:20;19.17;;;9.20;;
65581;SDS011;52231;40.090;18.348;2023-12-07T09:14:50;24.33;;;12.00;;
65581;SDS011;52231;40.090;18.348;2023-12-07T09:17:19;19.83;;;9.75;;
65581;SDS011;52231;40.090;18.348;2023-12-07T09:19:47;11.70;;;4.78;;
65581;SDS011;52231;40.090;18.348;2023-12-07T09:22:15;15.05;;;6.10;;
65581;SDS011;52231;40.090;18.348;2023-12-07T09:24:45;20.33;;;9.27;;
65581;SDS011;52231;40.090;18.348;2023-12-07T09:27:16;23.35;;;9.23;;
65581;SDS011;52231;40.090;18.348;2023-12-07T09:29:45;40.15;;;17.27;;
65581;SDS011;52231;40.090;18.348;2023-12-07T09:32:15;58.28;;;24.90;;
65581;SDS011;52231;40.090;18.348;2023-12-07T09:34:43;15.68;;;5.82;;
65581;SDS011;52231;40.090;18.348;2023-12-07T09:37:11;10.20;;;4.88;;
65581;SDS011;52231;40.090;18.348;2023-12-07T09:39:40;7.75;;;3.00;;
65581;SDS011;52231;40.090;18.348;2023-12-07T09:42:08;9.85;;;4.60;;
65581;SDS011;52231;40.090;18.348;2023-12-07T09:44:36;7.03;;;3.33;;
65581;SDS011;52231;40.090;18.348;2023-12-07T09:47:05;17.20;;;8.88;;
65581;SDS011;52231;40.090;18.348;2023-12-07T09:52:01;10.48;;;3.58;;
65581;SDS011;52231;40.090;18.348;2023-12-07T09:54:31;9.63;;;3.97;;
65581;SDS011;52231;40.090;18.348;2023-12-07T09:57:01;8.63;;;4.13;;
65581;SDS011;52231;40.090;18.348;2023-12-07T09:59:29;9.45;;;2.70;;
65581;SDS011;52231;40.090;18.348;2023-12-07T10:01:57;23.08;;;12.05;;
65581;SDS011;52231;40.090;18.348;2023-12-07T10:04:25;25.35;;;13.95;;
65581;SDS011;52231;40.090;18.348;2023-12-07T10:06:53;9.23;;;2.50;;
65581;SDS011;52231;40.090;18.348;2023-12-07T10:09:23;12.90;;;5.03;;
65581;SDS011;52231;40.090;18.348;2023-12-07T10:12:03;4.07;;;2.17;;
65581;SDS011;52231;40.090;18.348;2023-12-07T10:14:33;13.32;;;5.60;;
65581;SDS011;52231;40.090;18.348;2023-12-07T10:19:29;10.43;;;4.85;;
65581;SDS011;52231;40.090;18.348;2023-12-07T10:21:57;5.63;;;2.30;;
65581;SDS011;52231;40.090;18.348;2023-12-07T10:24:27;10.52;;;4.32;;
65581;SDS011;52231;40.090;18.348;2023-12-07T10:26:56;10.88;;;4.55;;
65581;SDS011;52231;40.090;18.348;2023-12-07T10:29:27;6.35;;;2.20;;
65581;SDS011;52231;40.090;18.348;2023-12-07T10:32:01;4.97;;;2.05;;
65581;SDS011;52231;40.090;18.348;2023-12-07T10:34:32;9.52;;;3.60;;
65581;SDS011;52231;40.090;18.348;2023-12-07T10:37:03;11.68;;;5.07;;
65581;SDS011;52231;40.090;18.348;2023-12-07T10:39:32;18.75;;;6.63;;
65581;SDS011;52231;40.090;18.348;2023-12-07T10:42:01;26.88;;;11.27;;
65581;SDS011;52231;40.090;18.348;2023-12-07T10:44:32;18.70;;;7.20;;
65581;SDS011;52231;40.090;18.348;2023-12-07T10:47:03;10.48;;;4.53;;
65581;SDS011;52231;40.090;18.348;2023-12-07T10:52:00;4.88;;;2.58;;
65581;SDS011;52231;40.090;18.348;2023-12-07T10:57:23;11.38;;;4.78;;
65581;SDS011;52231;40.090;18.348;2023-12-07T10:59:52;10.40;;;4.45;;
65581;SDS011;52231;40.090;18.348;2023-12-07T11:02:23;6.40;;;2.85;;
65581;SDS011;52231;40.090;18.348;2023-12-07T11:04:55;14.95;;;6.68;;
65581;SDS011;52231;40.090;18.348;2023-12-07T11:07:25;18.02;;;9.75;;
65581;SDS011;52231;40.090;18.348;2023-12-07T11:10:07;23.27;;;13.77;;
65581;SDS011;52231;40.090;18.348;2023-12-07T11:15:57;13.57;;;5.30;;
65581;SDS011;52231;40.090;18.348;2023-12-07T11:18:26;13.25;;;6.13;;
65581;SDS011;52231;40.090;18.348;2023-12-07T11:20:56;10.70;;;4.20;;
65581;SDS011;52231;40.090;18.348;2023-12-07T11:23:25;10.07;;;4.10;;
65581;SDS011;52231;40.090;18.348;2023-12-07T11:25:55;6.30;;;2.53;;
65581;SDS011;52231;40.090;18.348;2023-12-07T11:28:34;19.48;;;10.60;;
65581;SDS011;52231;40.090;18.348;2023-12-07T11:31:07;32.47;;;15.35;;
65581;SDS011;52231;40.090;18.348;2023-12-07T11:33:38;16.98;;;7.78;;
65581;SDS011;52231;40.090;18.348;2023-12-07T11:36:09;7.95;;;2.50;;
65581;SDS011;52231;40.090;18.348;2023-12-07T11:38:37;9.15;;;3.63;;
65581;SDS011;52231;40.090;18.348;2023-12-07T11:41:29;7.80;;;3.30;;
65581;SDS011;52231;40.090;18.348;2023-12-07T11:43:59;8.40;;;3.25;;
65581;SDS011;52231;40.090;18.348;2023-12-07T11:46:27;4.85;;;2.25;;
65581;SDS011;52231;40.090;18.348;2023-12-07T11:51:25;8.63;;;2.70;;
65581;SDS011;52231;40.090;18.348;2023-12-07T11:53:54;8.30;;;3.25;;
65581;SDS011;52231;40.090;18.348;2023-12-07T11:56:22;8.35;;;2.80;;
65581;SDS011;52231;40.090;18.348;2023-12-07T11:58:51;6.65;;;2.63;;
65581;SDS011;52231;40.090;18.348;2023-12-07T12:01:20;7.15;;;2.55;;
65581;SDS011;52231;40.090;18.348;2023-12-07T12:03:49;8.30;;;3.40;;
65581;SDS011;52231;40.090;18.348;2023-12-07T12:06:17;9.05;;;3.63;;
65581;SDS011;52231;40.090;18.348;2023-12-07T12:08:45;11.35;;;3.30;;
65581;SDS011;52231;40.090;18.348;2023-12-07T12:11:14;6.85;;;2.88;;
65581;SDS011;52231;40.090;18.348;2023-12-07T12:13:42;9.27;;;3.83;;
65581;SDS011;52231;40.090;18.348;2023-12-07T12:16:12;10.73;;;4.80;;
65581;SDS011;52231;40.090;18.348;2023-12-07T12:18:42;9.60;;;3.90;;
65581;SDS011;52231;40.090;18.348;2023-12-07T12:23:38;9.43;;;3.80;;
65581;SDS011;52231;40.090;18.348;2023-12-07T12:26:07;19.77;;;4.00;;
65581;SDS011;52231;40.090;18.348;2023-12-07T12:28:38;12.48;;;5.03;;
65581;SDS011;52231;40.090;18.348;2023-12-07T12:31:10;15.07;;;6.65;;
65581;SDS011;52231;40.090;18.348;2023-12-07T12:33:39;14.77;;;6.40;;
65581;SDS011;52231;40.090;18.348;2023-12-07T12:36:08;13.63;;;5.03;;
65581;SDS011;52231;40.090;18.348;2023-12-07T12:38:38;12.65;;;5.45;;
65581;SDS011;52231;40.090;18.348;2023-12-07T12:41:07;11.18;;;5.28;;
65581;SDS011;52231;40.090;18.348;2023-12-07T12:43:36;11.18;;;3.40;;
65581;SDS011;52231;40.090;18.348;2023-12-07T12:46:05;9.20;;;3.40;;
65581;SDS011;52231;40.090;18.348;2023-12-07T12:48:33;19.80;;;10.45;;
65581;SDS011;52231;40.090;18.348;2023-12-07T12:51:08;14.25;;;6.80;;
65581;SDS011;52231;40.090;18.348;2023-12-07T12:53:46;18.85;;;8.55;;
65581;SDS011;52231;40.090;18.348;2023-12-07T12:56:16;21.27;;;8.90;;
65581;SDS011;52231;40.090;18.348;2023-12-07T12:58:45;13.52;;;6.03;;
65581;SDS011;52231;40.090;18.348;2023-12-07T13:03:45;16.63;;;7.95;;
65581;SDS011;52231;40.090;18.348;2023-12-07T13:06:14;13.18;;;6.45;;
65581;SDS011;52231;40.090;18.348;2023-12-07T13:08:43;12.88;;;5.55;;
65581;SDS011;52231;40.090;18.348;2023-12-07T13:11:15;17.63;;;8.23;;
65581;SDS011;52231;40.090;18.348;2023-12-07T13:13:45;23.27;;;12.05;;
65581;SDS011;52231;40.090;18.348;2023-12-07T13:16:17;21.42;;;9.55;;
65581;SDS011;52231;40.090;18.348;2023-12-07T13:18:45;13.95;;;6.28;;
65581;SDS011;52231;40.090;18.348;2023-12-07T13:21:14;12.65;;;6.03;;
65581;SDS011;52231;40.090;18.348;2023-12-07T13:26:16;12.10;;;4.80;;
65581;SDS011;52231;40.090;18.348;2023-12-07T13:28:46;12.07;;;4.05;;
65581;SDS011;52231;40.090;18.348;2023-12-07T13:31:14;11.82;;;4.47;;
65581;SDS011;52231;40.090;18.348;2023-12-07T13:33:44;13.43;;;4.13;;
65581;SDS011;52231;40.090;18.348;2023-12-07T13:36:12;19.15;;;6.05;;
65581;SDS011;52231;40.090;18.348;2023-12-07T13:38:41;16.30;;;6.75;;
65581;SDS011;52231;40.090;18.348;2023-12-07T13:41:09;10.98;;;4.22;;
65581;SDS011;52231;40.090;18.348;2023-12-07T13:43:37;11.60;;;5.20;;
65581;SDS011;52231;40.090;18.348;2023-12-07T13:46:07;9.80;;;3.65;;
65581;SDS011;52231;40.090;18.348;2023-12-07T13:48:37;12.02;;;4.28;;
65581;SDS011;52231;40.090;18.348;2023-12-07T13:53:33;22.25;;;8.05;;
65581;SDS011;52231;40.090;18.348;2023-12-07T13:58:31;18.73;;;7.80;;
65581;SDS011;52231;40.090;18.348;2023-12-07T14:00:59;12.93;;;4.82;;
65581;SDS011;52231;40.090;18.348;2023-12-07T14:03:28;12.57;;;4.13;;
65581;SDS011;52231;40.090;18.348;2023-12-07T14:05:56;10.43;;;4.05;;
65581;SDS011;52231;40.090;18.348;2023-12-07T14:10:53;15.85;;;7.30;;
65581;SDS011;52231;40.090;18.348;2023-12-07T14:13:21;16.60;;;6.65;;
65581;SDS011;52231;40.090;18.348;2023-12-07T14:15:51;17.98;;;8.50;;
65581;SDS011;52231;40.090;18.348;2023-12-07T14:18:23;15.05;;;6.25;;
65581;SDS011;52231;40.090;18.348;2023-12-07T14:23:21;14.13;;;6.20;;
65581;SDS011;52231;40.090;18.348;2023-12-07T14:25:50;15.55;;;6.20;;
65581;SDS011;52231;40.090;18.348;2023-12-07T14:28:18;11.15;;;4.30;;
65581;SDS011;52231;40.090;18.348;2023-12-07T14:30:47;16.95;;;5.57;;
65581;SDS011;52231;40.090;18.348;2023-12-07T14:33:15;10.68;;;4.80;;
65581;SDS011;52231;40.090;18.348;2023-12-07T14:35:43;13.43;;;4.45;;
65581;SDS011;52231;40.090;18.348;2023-12-07T14:38:11;15.30;;;5.93;;
65581;SDS011;52231;40.090;18.348;2023-12-07T14:40:41;17.83;;;5.80;;
65581;SDS011;52231;40.090;18.348;2023-12-07T14:43:09;17.48;;;6.55;;
65581;SDS011;52231;40.090;18.348;2023-12-07T14:45:38;18.88;;;6.70;;
65581;SDS011;52231;40.090;18.348;2023-12-07T14:48:06;7.45;;;3.30;;
65581;SDS011;52231;40.090;18.348;2023-12-07T14:50:34;6.20;;;2.80;;
65581;SDS011;52231;40.090;18.348;2023-12-07T14:53:03;6.57;;;1.98;;
65581;SDS011;52231;40.090;18.348;2023-12-07T14:55:32;4.97;;;1.85;;
65581;SDS011;52231;40.090;18.348;2023-12-07T14:58:01;4.03;;;2.05;;
65581;SDS011;52231;40.090;18.348;2023-12-07T15:00:32;6.88;;;2.65;;
65581;SDS011;52231;40.090;18.348;2023-12-07T15:03:00;7.45;;;4.07;;
65581;SDS011;52231;40.090;18.348;2023-12-07T15:05:28;13.10;;;4.13;;
65581;SDS011;52231;40.090;18.348;2023-12-07T15:07:56;15.02;;;6.88;;
65581;SDS011;52231;40.090;18.348;2023-12-07T15:10:24;11.05;;;5.10;;
65581;SDS011;52231;40.090;18.348;2023-12-07T15:12:53;12.32;;;5.95;;
65581;SDS011;52231;40.090;18.348;2023-12-07T15:15:22;12.40;;;5.53;;
65581;SDS011;52231;40.090;18.348;2023-12-07T15:17:50;20.27;;;7.32;;